createdAt,value
2019-01-19T00:03:13.492Z,12.90
2019-01-19T00:06:43.165Z,12.93
2019-01-19T00:10:11.856Z,12.77
2019-01-19T00:13:40.359Z,13.10
2019-01-19T00:16:56.750Z,13.03
2019-01-19T00:20:19.248Z,12.73
2019-01-19T00:23:34.567Z,12.97
2019-01-19T00:26:47.424Z,13.40
2019-01-19T00:30:15.899Z,12.83
2019-01-19T00:37:21.100Z,12.73
2019-01-19T00:40:49.889Z,12.77
2019-01-19T00:44:05.867Z,12.47
2019-01-19T00:47:28.882Z,12.17
2019-01-19T00:50:57.895Z,11.77
2019-01-19T00:54:26.287Z,12.97
2019-01-19T01:01:28.399Z,14.23
2019-01-19T01:04:56.781Z,18.67
2019-01-19T01:08:25.560Z,16.90
2019-01-19T01:11:50.100Z,12.77
2019-01-19T01:18:25.782Z,13.10
2019-01-19T01:21:54.662Z,12.77
2019-01-19T01:25:23.469Z,12.23
2019-01-19T01:28:51.744Z,12.40
2019-01-19T01:31:53.890Z,12.30
2019-01-19T01:35:12.706Z,12.10
2019-01-19T01:38:45.452Z,12.00
2019-01-19T01:42:26.997Z,11.80
2019-01-19T01:45:41.878Z,11.83
2019-01-19T01:49:10.571Z,12.73
2019-01-19T01:52:39.505Z,11.97
2019-01-19T01:59:44.604Z,12.07
2019-01-19T02:03:13.863Z,12.40
2019-01-19T02:06:28.119Z,12.90
2019-01-19T02:09:56.699Z,12.30
2019-01-19T02:13:25.144Z,12.07
2019-01-19T02:16:48.542Z,11.77
2019-01-19T02:20:16.870Z,12.53
2019-01-19T02:23:29.693Z,13.67
2019-01-19T02:26:47.380Z,12.10
2019-01-19T02:30:16.454Z,12.67
2019-01-19T02:33:18.929Z,13.00
2019-01-19T02:36:47.961Z,13.90
2019-01-19T02:40:16.649Z,14.20
2019-01-19T02:43:30.141Z,14.77
2019-01-19T02:46:45.820Z,14.47
2019-01-19T02:50:29.131Z,15.33
2019-01-19T02:53:42.642Z,15.93
2019-01-19T02:57:02.053Z,16.00
2019-01-19T03:00:30.413Z,17.90
2019-01-19T03:03:33.201Z,16.33
2019-01-19T03:07:02.575Z,16.57
2019-01-19T03:10:32.902Z,14.70
2019-01-19T03:14:01.395Z,14.90
2019-01-19T03:17:30.111Z,13.87
2019-01-19T03:20:55.577Z,13.50
2019-01-19T03:24:23.964Z,13.03
2019-01-19T03:28:00.399Z,13.50
2019-01-19T03:30:56.278Z,12.30
2019-01-19T03:34:24.684Z,12.70
2019-01-19T03:37:41.190Z,13.27
2019-01-19T03:41:32.623Z,12.93
2019-01-19T03:44:45.227Z,13.17
2019-01-19T03:48:13.522Z,12.70
2019-01-19T03:51:29.276Z,12.23
2019-01-19T03:54:57.581Z,13.43
2019-01-19T03:58:15.753Z,12.87
2019-01-19T04:01:44.047Z,12.80
2019-01-19T04:05:12.407Z,12.83
2019-01-19T04:08:40.708Z,12.97
2019-01-19T04:12:09.330Z,13.93
2019-01-19T04:15:38.512Z,12.90
2019-01-19T04:18:51.573Z,13.50
2019-01-19T04:22:20.574Z,12.97
2019-01-19T04:25:49.640Z,13.10
2019-01-19T04:31:45.535Z,12.87
2019-01-19T04:34:36.447Z,12.83
2019-01-19T04:37:46.035Z,13.33
2019-01-19T04:40:37.449Z,13.00
2019-01-19T04:46:58.485Z,13.77
2019-01-19T04:49:50.023Z,12.93
2019-01-19T04:52:59.427Z,13.33
2019-01-19T04:55:50.533Z,12.57
2019-01-19T05:02:11.385Z,13.47
2019-01-19T05:08:32.832Z,13.23
2019-01-19T05:11:24.523Z,13.70
2019-01-19T05:14:15.275Z,13.57
2019-01-19T05:17:45.246Z,13.83
2019-01-19T05:20:36.102Z,13.00
2019-01-19T05:23:27.964Z,13.67
2019-01-19T05:29:30.465Z,13.63
2019-01-19T05:32:14.959Z,13.67
2019-01-19T05:35:06.342Z,13.90
2019-01-19T05:38:15.899Z,12.80
2019-01-19T05:41:07.474Z,13.17
2019-01-19T05:47:08.273Z,13.10
2019-01-19T05:49:59.284Z,13.20
2019-01-19T05:52:50.894Z,13.33
2019-01-19T05:55:41.742Z,12.73
2019-01-19T05:58:33.113Z,12.93
2019-01-19T06:05:14.660Z,12.50
2019-01-19T06:08:05.712Z,12.33
2019-01-19T06:10:57.276Z,11.90
2019-01-19T06:13:48.801Z,11.97
2019-01-19T06:16:39.922Z,12.03
2019-01-19T06:20:09.765Z,11.93
2019-01-19T06:23:01.207Z,11.83
2019-01-19T06:25:52.413Z,11.33
2019-01-19T06:31:52.309Z,12.70
2019-01-19T06:34:56.032Z,11.67
2019-01-19T06:37:36.188Z,12.13
2019-01-19T06:43:37.590Z,12.07
2019-01-19T06:47:07.570Z,11.70
2019-01-19T06:49:58.487Z,13.17
2019-01-19T06:53:28.541Z,13.27
2019-01-19T06:56:19.533Z,12.87
2019-01-19T06:59:17.366Z,14.03
2019-01-19T07:02:43.250Z,13.17
2019-01-19T07:05:36.016Z,12.90
2019-01-19T07:14:35.321Z,12.70
2019-01-19T07:17:26.158Z,12.97
2019-01-19T07:20:57.193Z,13.40
2019-01-19T07:23:49.282Z,13.30
2019-01-19T07:29:37.474Z,13.63
2019-01-19T07:32:21.418Z,13.23
2019-01-19T07:38:29.823Z,14.43
2019-01-19T07:41:20.970Z,14.83
2019-01-19T07:44:12.353Z,14.23
2019-01-19T07:50:20.284Z,15.23
2019-01-19T07:53:29.910Z,15.93
2019-01-19T07:59:19.795Z,16.23
2019-01-19T08:02:11.787Z,15.47
2019-01-19T08:05:17.486Z,16.57
2019-01-19T08:08:29.611Z,15.93
2019-01-19T08:11:09.532Z,15.43
2019-01-19T08:14:01.290Z,17.20
2019-01-19T08:17:31.742Z,16.30
2019-01-19T08:20:22.902Z,17.03
2019-01-19T08:23:13.860Z,15.63
2019-01-19T08:26:43.960Z,17.87
2019-01-19T08:29:34.791Z,16.10
2019-01-19T08:32:17.985Z,17.10
2019-01-19T08:38:20.831Z,16.53
2019-01-19T08:44:26.627Z,17.80
2019-01-19T08:47:18.395Z,17.80
2019-01-19T08:50:11.198Z,18.57
2019-01-19T08:53:02.087Z,18.17
2019-01-19T08:56:12.621Z,18.73
2019-01-19T08:59:42.444Z,19.00
2019-01-19T09:02:33.249Z,19.83
2019-01-19T09:05:25.353Z,19.40
2019-01-19T09:08:19.459Z,19.57
2019-01-19T09:11:10.244Z,20.17
2019-01-19T09:14:01.097Z,20.10
2019-01-19T09:16:51.981Z,22.07
2019-01-19T09:20:02.327Z,21.80
2019-01-19T09:29:27.148Z,21.97
2019-01-19T09:32:10.960Z,22.80
2019-01-19T09:38:31.263Z,24.87
2019-01-19T09:41:22.139Z,26.03
2019-01-19T09:44:13.046Z,29.47
2019-01-19T09:47:03.888Z,27.83
2019-01-19T09:49:55.307Z,27.23
2019-01-19T09:52:47.044Z,24.90
2019-01-19T09:55:38.570Z,26.80
2019-01-19T09:58:30.109Z,26.70
2019-01-19T10:01:21.711Z,26.90
2019-01-19T10:04:12.947Z,27.90
2019-01-19T10:07:03.913Z,27.57
2019-01-19T10:09:54.656Z,26.23
2019-01-19T10:12:45.571Z,27.23
2019-01-19T10:15:36.480Z,28.50
2019-01-19T10:24:28.552Z,25.47
2019-01-19T10:27:19.483Z,27.13
2019-01-19T10:30:51.617Z,27.33
2019-01-19T10:33:36.406Z,29.03
2019-01-19T10:36:27.241Z,28.00
2019-01-19T10:39:18.338Z,30.90
2019-01-19T10:42:09.189Z,28.80
2019-01-19T10:45:00.707Z,27.83
2019-01-19T10:54:00.995Z,27.87
2019-01-19T11:00:42.817Z,28.33
2019-01-19T11:03:53.487Z,29.03
2019-01-19T11:07:23.640Z,29.17
2019-01-19T11:10:54.912Z,28.57
2019-01-19T11:17:01.773Z,30.97
2019-01-19T11:19:52.657Z,29.17
2019-01-19T11:23:22.304Z,30.53
2019-01-19T11:26:13.703Z,31.83
2019-01-19T11:29:04.780Z,31.50
2019-01-19T11:31:48.821Z,33.07
2019-01-19T11:35:18.848Z,35.03
2019-01-19T11:38:12.052Z,32.23
2019-01-19T11:41:03.207Z,32.43
2019-01-19T11:47:24.444Z,31.67
2019-01-19T11:50:54.539Z,31.03
2019-01-19T11:53:46.142Z,31.53
2019-01-19T11:59:53.259Z,30.57
2019-01-19T12:12:17.227Z,28.00
2019-01-19T12:18:39.084Z,25.73
2019-01-19T12:21:30.000Z,27.37
2019-01-19T12:24:20.844Z,30.37
2019-01-19T12:27:50.669Z,26.57
2019-01-19T12:30:41.514Z,23.93
2019-01-19T12:33:25.176Z,22.70
2019-01-19T12:36:16.099Z,22.37
2019-01-19T12:39:47.308Z,22.17
2019-01-19T12:46:00.514Z,19.40
2019-01-19T12:48:51.371Z,20.10
2019-01-19T12:55:51.769Z,17.23
2019-01-19T12:58:42.860Z,18.73
2019-01-19T13:01:34.772Z,17.80
2019-01-19T13:04:25.621Z,17.87
2019-01-19T13:07:36.222Z,16.20
2019-01-19T13:17:58.656Z,13.00
2019-01-19T13:21:27.044Z,13.03
2019-01-19T13:24:44.897Z,13.13
2019-01-19T13:28:13.206Z,13.83
2019-01-19T13:31:41.646Z,13.73
2019-01-19T13:35:09.986Z,14.30
2019-01-19T13:38:42.009Z,12.87
2019-01-19T13:42:08.224Z,13.43
2019-01-19T13:45:37.229Z,13.67
2019-01-19T13:48:36.674Z,14.97
2019-01-19T13:52:06.038Z,15.30
2019-01-19T13:55:34.419Z,17.93
2019-01-19T13:58:49.029Z,14.77
2019-01-19T14:02:19.318Z,14.37
2019-01-19T14:05:47.847Z,13.60
2019-01-19T14:09:16.655Z,14.17
2019-01-19T14:12:32.680Z,13.60
2019-01-19T14:16:00.987Z,15.37
2019-01-19T14:19:14.753Z,16.03
2019-01-19T14:22:43.588Z,18.83
2019-01-19T14:26:19.889Z,19.40
2019-01-19T14:29:50.981Z,16.87
2019-01-19T14:32:52.789Z,17.67
2019-01-19T14:36:21.806Z,19.03
2019-01-19T14:39:50.175Z,17.97
2019-01-19T14:46:43.172Z,17.03
2019-01-19T14:50:11.484Z,17.90
2019-01-19T14:53:39.856Z,17.07
2019-01-19T14:56:55.026Z,17.70
2019-01-19T15:00:23.325Z,17.83
2019-01-19T15:03:52.461Z,17.63
2019-01-19T15:07:21.104Z,17.63
2019-01-19T15:11:06.093Z,18.00
2019-01-19T15:14:37.535Z,18.97
2019-01-19T15:17:55.367Z,15.93
2019-01-19T15:21:08.172Z,15.83
2019-01-19T15:24:36.847Z,17.53
2019-01-19T15:28:05.405Z,16.87
2019-01-19T15:31:52.425Z,17.27
2019-01-19T15:34:54.727Z,16.53
2019-01-19T15:38:23.107Z,17.50
2019-01-19T15:41:52.088Z,16.80
2019-01-19T15:45:07.746Z,17.60
2019-01-19T15:48:36.876Z,16.87
2019-01-19T15:52:06.305Z,16.80
2019-01-19T15:55:34.942Z,16.83
2019-01-19T15:58:49.182Z,16.30
2019-01-19T16:06:04.734Z,17.07
2019-01-19T16:09:53.823Z,22.17
2019-01-19T16:13:11.473Z,24.33
2019-01-19T16:16:35.605Z,19.73
2019-01-19T16:23:51.287Z,17.17
2019-01-19T16:27:20.293Z,17.53
2019-01-19T16:30:48.672Z,16.10
2019-01-19T16:33:50.999Z,18.73
2019-01-19T16:37:08.186Z,22.93
2019-01-19T16:40:24.144Z,22.90
2019-01-19T16:43:46.384Z,22.47
2019-01-19T16:47:15.274Z,26.37
2019-01-19T16:50:44.372Z,35.47
2019-01-19T16:54:13.703Z,29.93
2019-01-19T16:57:42.353Z,29.37
2019-01-19T17:01:10.724Z,29.23
2019-01-19T17:04:27.965Z,19.60
2019-01-19T17:08:05.480Z,18.43
2019-01-19T17:11:34.407Z,27.23
2019-01-19T17:15:03.206Z,23.10
2019-01-19T17:18:31.546Z,18.90
2019-01-19T17:22:00.097Z,17.23
2019-01-19T17:29:15.750Z,20.50
2019-01-19T17:36:01.996Z,19.17
2019-01-19T17:39:30.389Z,17.77
2019-01-19T17:42:59.098Z,20.07
2019-01-19T17:46:27.942Z,23.93
2019-01-19T17:49:56.393Z,26.37
2019-01-19T17:53:25.087Z,29.70
2019-01-19T17:56:53.399Z,29.10
2019-01-19T18:00:07.946Z,30.97
2019-01-19T18:03:36.419Z,35.57
2019-01-19T18:07:05.154Z,35.10
2019-01-19T18:10:33.937Z,28.53
2019-01-19T18:14:02.254Z,23.13
2019-01-19T18:17:30.972Z,21.93
2019-01-19T18:20:57.698Z,22.47
2019-01-19T18:24:26.329Z,21.60
2019-01-19T18:27:54.562Z,21.87
2019-01-19T18:34:22.914Z,19.87
2019-01-19T18:37:51.377Z,21.10
2019-01-19T18:41:19.683Z,22.13
2019-01-19T18:44:47.947Z,20.13
2019-01-19T18:48:16.260Z,19.97
2019-01-19T18:51:44.616Z,20.40
2019-01-19T18:55:13.098Z,20.83
2019-01-19T18:58:41.569Z,21.00
2019-01-19T19:02:09.948Z,21.57
2019-01-19T19:05:23.887Z,22.77
2019-01-19T19:08:37.709Z,23.97
2019-01-19T19:12:05.941Z,24.50
2019-01-19T19:15:07.713Z,23.77
2019-01-19T19:18:36.619Z,25.43
2019-01-19T19:22:11.291Z,24.47
2019-01-19T19:25:39.690Z,20.63
2019-01-19T19:29:08.041Z,21.40
2019-01-19T19:32:04.058Z,22.43
2019-01-19T19:35:19.215Z,21.37
2019-01-19T19:38:47.623Z,21.53
2019-01-19T19:42:16.382Z,22.00
2019-01-19T19:45:37.934Z,21.33
2019-01-19T19:49:06.347Z,21.97
2019-01-19T19:52:16.204Z,22.53
2019-01-19T19:55:04.760Z,24.47
2019-01-19T19:57:55.899Z,21.70
2019-01-19T20:04:18.242Z,23.53
2019-01-19T20:07:09.359Z,23.60
2019-01-19T20:10:00.669Z,22.40
2019-01-19T20:12:51.578Z,21.37
2019-01-19T20:15:42.734Z,22.70
2019-01-19T20:18:33.679Z,21.77
2019-01-19T20:21:24.572Z,22.37
2019-01-19T20:24:15.472Z,25.87
2019-01-19T20:27:06.537Z,31.13
2019-01-19T20:33:06.276Z,28.20
2019-01-19T20:35:58.828Z,24.47
2019-01-19T20:38:50.059Z,25.50
2019-01-19T20:42:01.485Z,21.93
2019-01-19T20:45:31.451Z,21.47
2019-01-19T20:49:01.461Z,21.00
2019-01-19T20:51:52.330Z,22.23
2019-01-19T20:54:43.710Z,23.83
2019-01-19T20:57:34.580Z,23.00
2019-01-19T21:01:04.456Z,24.30
2019-01-19T21:04:36.020Z,24.43
2019-01-19T21:07:27.332Z,23.93
2019-01-19T21:13:15.947Z,23.70
2019-01-19T21:16:06.809Z,22.53
2019-01-19T21:18:57.654Z,22.80
2019-01-19T21:25:25.349Z,23.60
2019-01-19T21:31:38.790Z,21.87
2019-01-19T21:34:30.123Z,21.90
2019-01-19T21:37:20.934Z,22.27
2019-01-19T21:40:12.244Z,21.87
2019-01-19T21:43:03.129Z,21.23
2019-01-19T21:45:53.872Z,21.80
2019-01-19T21:48:44.680Z,22.43
2019-01-19T21:51:35.572Z,21.87
2019-01-19T21:54:26.313Z,22.70
2019-01-19T21:57:17.061Z,22.03
2019-01-19T22:00:10.721Z,20.77
2019-01-19T22:03:01.512Z,21.57
2019-01-19T22:05:52.389Z,21.33
2019-01-19T22:09:02.062Z,21.80
2019-01-19T22:11:53.036Z,20.30
2019-01-19T22:14:44.043Z,20.77
2019-01-19T22:20:31.344Z,20.07
2019-01-19T22:23:22.206Z,20.10
2019-01-19T22:29:24.337Z,21.73
2019-01-19T22:32:07.632Z,22.27
2019-01-19T22:34:58.877Z,21.03
2019-01-19T22:37:49.835Z,20.33
2019-01-19T22:40:40.910Z,21.10
2019-01-19T22:43:34.678Z,21.13
2019-01-19T22:49:37.158Z,21.87
2019-01-19T22:52:28.120Z,21.67
2019-01-19T22:58:29.989Z,21.37
2019-01-19T23:01:43.244Z,22.10
2019-01-19T23:04:34.023Z,21.73
2019-01-19T23:08:03.889Z,22.00
2019-01-19T23:17:41.752Z,21.07
2019-01-19T23:21:11.618Z,20.70
2019-01-19T23:30:45.302Z,21.30
2019-01-19T23:33:28.464Z,23.83
2019-01-19T23:36:19.322Z,23.27
2019-01-19T23:39:11.692Z,22.03
2019-01-19T23:45:52.533Z,21.73
2019-01-19T23:48:43.519Z,23.03
2019-01-19T23:51:34.401Z,22.03
2019-01-19T23:54:25.564Z,23.33
2019-01-19T23:57:17.651Z,21.93
